createdAt,value
2016-04-12T00:00:55.784Z,23.24
2016-04-12T00:01:55.787Z,23.24
2016-04-12T00:02:55.790Z,23.44
2016-04-12T00:03:55.792Z,23.34
2016-04-12T00:04:55.795Z,23.34
2016-04-12T00:05:55.813Z,23.34
2016-04-12T00:06:55.816Z,23.34
2016-04-12T00:07:55.819Z,23.34
2016-04-12T00:08:56.239Z,23.34
2016-04-12T00:09:55.836Z,23.34
2016-04-12T00:10:55.839Z,23.15
2016-04-12T00:11:55.841Z,23.24
2016-04-12T00:12:55.859Z,23.24
2016-04-12T00:13:55.847Z,23.63
2016-04-12T00:14:55.849Z,23.44
2016-04-12T00:15:55.867Z,23.54
2016-04-12T00:16:55.869Z,23.44
2016-04-12T00:17:55.872Z,23.63
2016-04-12T00:18:55.875Z,23.63
2016-04-12T00:20:00.955Z,23.54
2016-04-12T00:20:55.896Z,23.63
2016-04-12T00:21:55.898Z,23.63
2016-04-12T00:22:55.902Z,23.72
2016-04-12T00:23:55.919Z,23.63
2016-04-12T00:24:55.907Z,23.72
2016-04-12T00:25:55.924Z,23.44
2016-04-12T00:26:55.944Z,23.63
2016-04-12T00:27:55.945Z,23.72
2016-04-12T00:28:55.933Z,23.72
2016-04-12T00:29:55.952Z,23.63
2016-04-12T00:30:55.796Z,23.63
2016-04-12T00:31:55.994Z,23.54
2016-04-12T00:32:55.970Z,23.82
2016-04-12T00:33:55.973Z,23.72
2016-04-12T00:34:55.975Z,23.72
2016-04-12T00:35:55.978Z,23.72
2016-04-12T00:36:55.981Z,23.63
2016-04-12T00:37:55.999Z,23.72
2016-04-12T00:38:56.002Z,23.63
2016-04-12T00:39:56.004Z,23.82
2016-04-12T00:40:56.007Z,23.92
2016-04-12T00:41:56.009Z,23.72
2016-04-12T00:42:56.029Z,23.92
2016-04-12T00:43:56.031Z,23.82
2016-04-12T00:44:56.033Z,23.72
2016-04-12T00:45:56.037Z,23.92
2016-04-12T00:46:56.039Z,23.72
2016-04-12T00:47:56.058Z,23.72
2016-04-12T00:48:56.060Z,23.72
2016-04-12T00:49:56.064Z,23.82
2016-04-12T00:50:56.066Z,23.72
2016-04-12T00:51:56.069Z,24.02
2016-04-12T00:52:56.071Z,23.54
2016-04-12T00:53:56.089Z,23.54
2016-04-12T00:54:56.092Z,23.44
2016-04-12T00:55:56.111Z,23.54
2016-04-12T00:56:56.097Z,23.54
2016-04-12T00:57:56.115Z,23.72
2016-04-12T00:58:56.103Z,23.82
2016-04-12T00:59:56.121Z,23.63
2016-04-12T01:00:56.123Z,23.82
2016-04-12T01:01:56.299Z,23.72
2016-04-12T01:02:56.129Z,23.72
2016-04-12T01:03:56.132Z,23.81
2016-04-12T01:04:56.150Z,24.1
2016-04-12T01:05:56.153Z,23.91
2016-04-12T01:06:56.156Z,24.1
2016-04-12T01:07:56.174Z,24.1
2016-04-12T01:08:56.161Z,24.1
2016-04-12T01:09:56.195Z,24.1
2016-04-12T01:10:56.182Z,24.1
2016-04-12T01:11:56.185Z,24.1
2016-04-12T01:12:56.187Z,24.11
2016-04-12T01:13:56.189Z,23.62
2016-04-12T01:14:56.208Z,24.01
2016-04-12T01:15:56.211Z,24.1
2016-04-12T01:16:56.308Z,24.11
2016-04-12T01:17:56.231Z,24.1
2016-04-12T01:18:56.219Z,24.1
2016-04-12T01:19:56.237Z,24.1
2016-04-12T01:20:56.239Z,24.01
2016-04-12T01:21:56.242Z,23.82
2016-04-12T01:22:56.245Z,24.01
2016-04-12T01:23:56.248Z,24.29
2016-04-12T01:24:56.266Z,24.2
2016-04-12T01:25:56.269Z,23.92
2016-04-12T01:26:56.272Z,24.1
2016-04-12T01:27:56.290Z,24.01
2016-04-12T01:28:56.277Z,23.91
2016-04-12T01:29:56.296Z,24.01
2016-04-12T01:30:56.282Z,24.1
2016-04-12T01:31:56.457Z,24.1
2016-04-12T01:32:56.319Z,24.01
2016-04-12T01:33:56.306Z,24.01
2016-04-12T01:34:56.324Z,24.1
2016-04-12T01:35:56.312Z,23.72
2016-04-12T01:36:56.329Z,24.1
2016-04-12T01:37:56.332Z,23.91
2016-04-12T01:38:56.351Z,23.91
2016-04-12T01:39:56.337Z,23.91
2016-04-12T01:40:56.372Z,24.01
2016-04-12T01:41:56.375Z,24.01
2016-04-12T01:42:56.361Z,23.91
2016-04-12T01:43:56.381Z,24.01
2016-04-12T01:44:56.367Z,24.1
2016-04-12T01:45:56.370Z,23.91
2016-04-12T01:46:56.434Z,23.91
2016-04-12T01:47:56.391Z,23.91
2016-04-12T01:48:56.394Z,24.01
2016-04-12T01:49:56.411Z,23.91
2016-04-12T01:50:56.399Z,24.01
2016-04-12T01:51:56.433Z,23.62
2016-04-12T01:52:56.419Z,23.81
2016-04-12T01:53:56.422Z,23.91
2016-04-12T01:54:56.441Z,23.91
2016-04-12T01:55:56.428Z,23.81
2016-04-12T01:56:56.431Z,23.91
2016-04-12T01:57:56.449Z,24.29
2016-04-12T01:58:56.451Z,24.39
2016-04-12T01:59:56.455Z,23.91
2016-04-12T02:00:56.457Z,24.2
2016-04-12T02:01:56.554Z,23.81
2016-04-12T02:02:56.478Z,23.91
2016-04-12T02:03:56.480Z,23.91
2016-04-12T02:04:56.483Z,24.29
2016-04-12T02:05:56.485Z,24.2
2016-04-12T02:06:56.488Z,24.2
2016-04-12T02:07:56.507Z,24.01
2016-04-12T02:08:56.509Z,23.91
2016-04-12T02:09:56.512Z,24.01
2016-04-12T02:10:56.530Z,23.91
2016-04-12T02:11:56.533Z,24.39
2016-04-12T02:12:56.536Z,24.01
2016-04-12T02:13:56.523Z,23.81
2016-04-12T02:14:56.541Z,23.91
2016-04-12T02:15:56.559Z,24.01
2016-04-12T02:16:56.594Z,24.01
2016-04-12T02:17:56.550Z,24.1
2016-04-12T02:18:56.568Z,23.91
2016-04-12T02:19:56.586Z,23.81
2016-04-12T02:20:56.589Z,24.01
2016-04-12T02:21:56.576Z,23.91
2016-04-12T02:22:56.578Z,24.01
2016-04-12T02:23:56.581Z,24.1
2016-04-12T02:24:56.600Z,24.01
2016-04-12T02:25:56.602Z,24.1
2016-04-12T02:26:56.605Z,24.01
2016-04-12T02:27:56.607Z,24.01
2016-04-12T02:28:56.626Z,23.91
2016-04-12T02:29:56.629Z,23.81
2016-04-12T02:30:56.631Z,23.81
2016-04-12T02:31:56.665Z,24.01
2016-04-12T02:32:56.637Z,23.91
2016-04-12T02:33:56.640Z,24.01
2016-04-12T02:34:56.658Z,23.91
2016-04-12T02:35:56.661Z,24.1
2016-04-12T02:36:56.663Z,24.01
2016-04-12T02:37:56.666Z,24.01
2016-04-12T02:38:56.668Z,24.1
2016-04-12T02:39:56.687Z,23.91
2016-04-12T02:40:56.705Z,24.01
2016-04-12T02:41:56.692Z,24.1
2016-04-12T02:42:56.695Z,24.1
2016-04-12T02:43:56.713Z,23.91
2016-04-12T02:44:56.716Z,24.01
2016-04-12T02:45:56.718Z,24.01
2016-04-12T02:46:56.768Z,24.1
2016-04-12T02:47:56.723Z,23.91
2016-04-12T02:48:56.726Z,24.1
2016-04-12T02:49:56.729Z,23.91
2016-04-12T02:50:56.731Z,24.01
2016-04-12T02:51:56.734Z,23.91
2016-04-12T02:52:56.737Z,24.1
2016-04-12T02:53:56.771Z,24.01
2016-04-12T02:54:56.758Z,24.1
2016-04-12T02:55:56.761Z,24.01
2016-04-12T02:56:56.779Z,23.91
2016-04-12T02:57:56.766Z,23.91
2016-04-12T02:58:56.784Z,24.01
2016-04-12T02:59:56.787Z,23.91
2016-04-12T03:00:56.805Z,24.1
2016-04-12T03:01:56.793Z,24.1
2016-04-12T03:02:56.795Z,24.01
2016-04-12T03:03:56.813Z,24.1
2016-04-12T03:04:56.816Z,23.81
2016-04-12T03:05:56.818Z,24.1
2016-04-12T03:06:56.821Z,24.1
2016-04-12T03:07:56.840Z,24.1
2016-04-12T03:08:56.842Z,24.02
2016-04-12T03:09:56.861Z,24.1
2016-04-12T03:10:56.848Z,24.01
2016-04-12T03:11:56.851Z,24.01
2016-04-12T03:12:56.870Z,24.1
2016-04-12T03:13:56.856Z,23.91
2016-04-12T03:14:56.859Z,24.1
2016-04-12T03:15:56.908Z,24.01
2016-04-12T03:16:56.880Z,23.91
2016-04-12T03:17:56.883Z,23.91
2016-04-12T03:18:56.900Z,23.91
2016-04-12T03:19:56.904Z,23.91
2016-04-12T03:20:56.907Z,24.01
2016-04-12T03:21:56.909Z,23.91
2016-04-12T03:22:56.912Z,23.91
2016-04-12T03:23:56.930Z,24.1
2016-04-12T03:24:56.933Z,23.72
2016-04-12T03:25:56.936Z,24.1
2016-04-12T03:26:56.938Z,24.01
2016-04-12T03:27:56.941Z,24.1
2016-04-12T03:28:56.958Z,23.91
2016-04-12T03:29:56.961Z,24.1
2016-04-12T03:31:56.966Z,24.1
2016-04-12T03:32:56.985Z,23.91
2016-04-12T03:33:56.972Z,23.91
2016-04-12T03:34:56.975Z,23.91
2016-04-12T03:35:57.024Z,24.01
2016-04-12T03:36:56.996Z,24.29
2016-04-12T03:37:56.999Z,24.01
2016-04-12T03:38:57.002Z,24.2
2016-04-12T03:39:57.005Z,24.01
2016-04-12T03:40:57.023Z,24.1
2016-04-12T03:41:57.026Z,24.1
2016-04-12T03:42:57.028Z,23.81
2016-04-12T03:43:57.031Z,23.72
2016-04-12T03:44:57.049Z,23.52
2016-04-12T03:45:57.051Z,23.72
2016-04-12T03:46:57.054Z,23.72
2016-04-12T03:47:57.056Z,24.01
2016-04-12T03:48:57.059Z,23.91
2016-04-12T03:49:57.078Z,23.72
2016-04-12T03:50:57.064Z,23.72
2016-04-12T03:51:57.083Z,23.72
2016-04-12T03:52:57.086Z,23.81
2016-04-12T03:53:57.089Z,23.62
2016-04-12T03:54:57.108Z,23.72
2016-04-12T03:55:57.094Z,23.54
2016-04-12T03:56:57.113Z,23.52
2016-04-12T03:57:57.115Z,23.52
2016-04-12T03:58:57.119Z,23.52
2016-04-12T03:59:57.136Z,23.62
2016-04-12T04:00:57.139Z,23.62
2016-04-12T04:01:57.141Z,23.62
2016-04-12T04:02:57.144Z,23.43
2016-04-12T04:03:57.147Z,23.52
2016-04-12T04:04:57.150Z,23.43
2016-04-12T04:05:57.168Z,23.43
2016-04-12T04:06:57.154Z,23.24
2016-04-12T04:07:57.157Z,23.52
2016-04-12T04:08:57.161Z,23.52
2016-04-12T04:09:57.179Z,23.62
2016-04-12T04:10:57.182Z,23.52
2016-04-12T04:11:57.184Z,23.52
2016-04-12T04:12:57.218Z,23.81
2016-04-12T04:13:57.205Z,23.62
2016-04-12T04:14:57.207Z,23.43
2016-04-12T04:15:57.210Z,23.63
2016-04-12T04:16:57.212Z,23.24
2016-04-12T04:17:57.232Z,23.33
2016-04-12T04:18:57.234Z,23.24
2016-04-12T04:19:57.237Z,23.33
2016-04-12T04:20:57.239Z,23.63
2016-04-12T04:21:57.242Z,23.62
2016-04-12T04:22:57.089Z,23.52
2016-04-12T04:23:57.263Z,23.33
2016-04-12T04:24:57.250Z,23.24
2016-04-12T04:25:57.269Z,23.24
2016-04-12T04:26:57.272Z,23.24
2016-04-12T04:27:57.274Z,23.24
2016-04-12T04:28:57.292Z,23.33
2016-04-12T04:29:57.280Z,23.24
2016-04-12T04:30:57.297Z,23.33
2016-04-12T04:31:57.300Z,23.62
2016-04-12T04:32:57.319Z,23.33
2016-04-12T04:33:57.305Z,23.24
2016-04-12T04:34:57.308Z,23.14
2016-04-12T04:35:57.342Z,23.24
2016-04-12T04:36:57.330Z,23.34
2016-04-12T04:37:57.332Z,23.44
2016-04-12T04:38:57.335Z,23.43
2016-04-12T04:39:57.338Z,23.52
2016-04-12T04:40:57.340Z,23.62
2016-04-12T04:41:57.359Z,23.62
2016-04-12T04:42:57.362Z,23.43
2016-04-12T04:43:57.364Z,23.33
2016-04-12T04:44:57.367Z,23.24
2016-04-12T04:45:57.370Z,23.33
2016-04-12T04:46:57.387Z,23.24
2016-04-12T04:47:57.375Z,23.24
2016-04-12T04:48:57.393Z,23.15
2016-04-12T04:49:57.396Z,23.14
2016-04-12T04:50:57.398Z,23.33
2016-04-12T04:51:57.401Z,23.34
2016-04-12T04:52:57.403Z,23.24
2016-04-12T04:53:57.423Z,23.34
2016-04-12T04:54:57.425Z,23.24
2016-04-12T04:55:57.428Z,23.24
2016-04-12T04:56:57.430Z,23.24
2016-04-12T04:57:57.432Z,23.34
2016-04-12T04:58:57.451Z,23.24
2016-04-12T04:59:57.453Z,23.44
2016-04-12T05:00:57.456Z,23.24
2016-04-12T05:01:57.459Z,23.44
2016-04-12T05:02:57.461Z,23.34
2016-04-12T05:03:57.464Z,23.44
2016-04-12T05:04:57.483Z,23.54
2016-04-12T05:05:57.486Z,23.24
2016-04-12T05:06:57.504Z,23.24
2016-04-12T05:07:57.491Z,22.96
2016-04-12T05:08:58.010Z,22.86
2016-04-12T05:09:57.513Z,23.54
2016-04-12T05:10:57.509Z,23.63
2016-04-12T05:11:57.511Z,23.54
2016-04-12T05:12:57.530Z,22.96
2016-04-12T05:13:57.517Z,23.34
2016-04-12T05:14:57.534Z,23.15
2016-04-12T05:15:57.538Z,23.15
2016-04-12T05:16:57.556Z,23.24
2016-04-12T05:17:57.543Z,23.34
2016-04-12T05:18:57.545Z,23.05
2016-04-12T05:19:57.564Z,23.05
2016-04-12T05:20:57.567Z,23.05
2016-04-12T05:21:57.569Z,23.05
2016-04-12T05:22:57.572Z,23.15
2016-04-12T05:23:57.591Z,22.76
2016-04-12T05:24:57.578Z,22.96
2016-04-12T05:25:57.597Z,23.34
2016-04-12T05:26:57.599Z,23.15
2016-04-12T05:27:57.602Z,23.05
2016-04-12T05:28:57.604Z,23.15
2016-04-12T05:29:57.607Z,23.52
2016-04-12T05:30:57.625Z,23.15
2016-04-12T05:31:57.627Z,23.05
2016-04-12T05:32:57.646Z,22.96
2016-04-12T05:33:57.648Z,23.24
2016-04-12T05:34:57.652Z,23.15
2016-04-12T05:35:57.654Z,23.15
2016-04-12T05:36:57.656Z,22.96
2016-04-12T05:37:57.660Z,23.15
2016-04-12T05:38:57.662Z,23.24
2016-04-12T05:39:57.665Z,22.96
2016-04-12T05:40:57.684Z,23.05
2016-04-12T05:41:57.686Z,22.1
2016-04-12T05:42:57.689Z,21.91
2016-04-12T05:43:57.691Z,22.29
2016-04-12T05:44:57.710Z,22.19
2016-04-12T05:45:57.697Z,22.1
2016-04-12T05:46:57.700Z,21.72
2016-04-12T05:47:57.858Z,22.02
2016-04-12T05:48:57.736Z,22
2016-04-12T05:49:57.739Z,22.19
2016-04-12T05:50:57.741Z,22.1
2016-04-12T05:51:57.759Z,22.1
2016-04-12T05:52:57.747Z,20.86
2016-04-12T05:53:57.750Z,20.57
2016-04-12T05:54:57.767Z,20.59
2016-04-12T05:55:57.755Z,20.39
2016-04-12T05:56:57.758Z,20.1
2016-04-12T05:57:57.775Z,19.81
2016-04-12T05:58:57.778Z,19.73
2016-04-12T05:59:57.781Z,19.45
2016-04-12T06:00:57.799Z,19.35
2016-04-12T06:01:57.802Z,19.45
2016-04-12T06:02:57.852Z,19.64
2016-04-12T06:03:57.824Z,19.63
2016-04-12T06:04:57.810Z,19.06
2016-04-12T06:05:57.828Z,18.96
2016-04-12T06:06:57.847Z,18.1
2016-04-12T06:07:57.834Z,17.54
2016-04-12T06:08:57.852Z,17.24
2016-04-12T06:09:57.871Z,17.92
2016-04-12T06:10:57.873Z,18.11
2016-04-12T06:11:57.876Z,18.29
2016-04-12T06:12:57.878Z,18.49
2016-04-12T06:13:57.897Z,18.11
2016-04-12T06:14:57.884Z,18.11
2016-04-12T06:15:57.887Z,18.11
2016-04-12T06:16:57.905Z,18.21
2016-04-12T06:17:57.986Z,17.91
2016-04-12T06:18:57.926Z,17.72
2016-04-12T06:19:57.928Z,17.52
2016-04-12T06:20:57.931Z,16.56
2016-04-12T06:21:57.950Z,16.57
2016-04-12T06:22:57.953Z,16
2016-04-12T06:23:57.986Z,15.81
2016-04-12T06:24:57.989Z,15.72
2016-04-12T06:25:57.976Z,15.81
2016-04-12T06:26:57.994Z,15.24
2016-04-12T06:27:57.996Z,14.65
2016-04-12T06:28:58.000Z,14.76
2016-04-12T06:29:58.002Z,14.38
2016-04-12T06:30:58.021Z,14.38
2016-04-12T06:31:58.024Z,14.19
2016-04-12T06:32:57.994Z,13.71
2016-04-12T06:33:58.029Z,13.52
2016-04-12T06:34:58.047Z,12.55
2016-04-12T06:35:58.050Z,12.37
2016-04-12T06:36:58.068Z,12.27
2016-04-12T06:37:58.071Z,12.27
2016-04-12T06:38:58.074Z,11.89
2016-04-12T06:39:58.093Z,11.4
2016-04-12T06:40:58.095Z,11.11
2016-04-12T06:41:58.112Z,11.21
2016-04-12T06:42:58.115Z,10.93
2016-04-12T06:43:58.118Z,10.93
2016-04-12T06:44:58.137Z,10.53
2016-04-12T06:45:58.139Z,10.83
2016-04-12T06:46:58.157Z,10.74
2016-04-12T06:47:58.254Z,10.25
2016-04-12T06:48:58.178Z,10.15
2016-04-12T06:49:58.181Z,10.35
2016-04-12T06:50:58.200Z,10.35
2016-04-12T06:51:58.203Z,10.74
2016-04-12T06:52:58.220Z,10.64
2016-04-12T06:53:58.223Z,10.25
2016-04-12T06:54:58.226Z,10.35
2016-04-12T06:55:58.245Z,10.25
2016-04-12T06:56:58.263Z,9.86
2016-04-12T06:57:58.266Z,9.86
2016-04-12T06:58:58.268Z,9.86
2016-04-12T06:59:58.271Z,10.55
2016-04-12T07:00:58.288Z,12.58
2016-04-12T07:01:58.307Z,13.82
2016-04-12T07:02:58.263Z,14.96
2016-04-12T07:03:58.344Z,15.63
2016-04-12T07:04:58.330Z,15.81
2016-04-12T07:05:58.333Z,16.58
2016-04-12T07:06:58.352Z,17.06
2016-04-12T07:07:58.354Z,17.64
2016-04-12T07:08:58.373Z,18.02
2016-04-12T07:09:58.391Z,17.92
2016-04-12T07:10:58.393Z,18.21
2016-04-12T07:11:58.381Z,17.91
2016-04-12T07:12:58.399Z,18.4
2016-04-12T07:13:58.402Z,18.88
2016-04-12T07:14:58.404Z,18.87
2016-04-12T07:15:58.423Z,18.77
2016-04-12T07:16:58.426Z,18.87
2016-04-12T07:17:58.584Z,18.59
2016-04-12T07:18:58.431Z,18.97
2016-04-12T07:19:58.450Z,19.26
2016-04-12T07:20:58.453Z,18.97
2016-04-12T07:21:58.455Z,19.64
2016-04-12T07:22:58.473Z,19.15
2016-04-12T07:23:58.475Z,19.54
2016-04-12T07:24:58.478Z,19.64
2016-04-12T07:25:58.497Z,19.64
2016-04-12T07:26:58.500Z,19.73
2016-04-12T07:27:58.502Z,19.64
2016-04-12T07:28:58.505Z,19.06
2016-04-12T07:29:58.523Z,19.45
2016-04-12T07:30:58.541Z,19.07
2016-04-12T07:31:58.528Z,18.77
2016-04-12T07:32:58.578Z,18.77
2016-04-12T07:33:58.550Z,18.97
2016-04-12T07:34:58.552Z,18.68
2016-04-12T07:35:58.570Z,18.87
2016-04-12T07:36:58.558Z,18.77
2016-04-12T07:37:58.576Z,18.98
2016-04-12T07:38:58.579Z,18.68
2016-04-12T07:39:58.597Z,18.79
2016-04-12T07:40:58.599Z,18.49
2016-04-12T07:41:58.605Z,18.69
2016-04-12T07:42:58.656Z,18.4
2016-04-12T07:43:58.723Z,18.69
2016-04-12T07:44:58.757Z,18.59
2016-04-12T07:45:58.825Z,18.69
2016-04-12T07:46:58.873Z,18.21
2016-04-12T07:47:58.893Z,17.82
2016-04-12T07:48:58.912Z,17.91
2016-04-12T07:49:58.933Z,18.01
2016-04-12T07:50:58.969Z,18.21
2016-04-12T07:51:59.003Z,18.11
2016-04-12T07:52:59.012Z,18.31
2016-04-12T07:53:59.020Z,18.11
2016-04-12T07:54:59.029Z,18.21
2016-04-12T07:55:59.054Z,18.21
2016-04-12T07:56:59.063Z,18.21
2016-04-12T07:57:59.068Z,18.21
2016-04-12T07:58:59.088Z,18.11
2016-04-12T07:59:59.093Z,18.21
2016-04-12T08:00:59.082Z,17.82
2016-04-12T08:01:59.102Z,18.11
2016-04-12T08:02:59.106Z,18.11
2016-04-12T08:03:59.126Z,17.91
2016-04-12T08:04:59.129Z,18.02
2016-04-12T08:05:59.132Z,18.12
2016-04-12T08:06:59.152Z,18.12
2016-04-12T08:07:59.170Z,18.02
2016-04-12T08:08:59.163Z,18.02
2016-04-12T08:09:59.165Z,18.02
2016-04-12T08:10:59.169Z,18.02
2016-04-12T08:11:59.172Z,18.02
2016-04-12T08:12:59.174Z,17.92
2016-04-12T08:13:59.197Z,18.01
2016-04-12T08:14:59.200Z,18.02
2016-04-12T08:15:59.203Z,18.02
2016-04-12T08:16:59.206Z,18.02
2016-04-12T08:17:59.224Z,18.01
2016-04-12T08:18:59.226Z,18.12
2016-04-12T08:19:59.230Z,18.11
2016-04-12T08:20:59.232Z,17.91
2016-04-12T08:21:59.250Z,18.12
2016-04-12T08:22:59.252Z,18.01
2016-04-12T08:23:59.272Z,17.92
2016-04-12T08:24:59.258Z,18.01
2016-04-12T08:25:59.276Z,18.11
2016-04-12T08:26:59.295Z,18.21
2016-04-12T08:27:59.282Z,18.21
2016-04-12T08:28:59.285Z,18.11
2016-04-12T08:29:59.288Z,18.01
2016-04-12T08:30:59.306Z,18.01
2016-04-12T08:31:59.309Z,18.21
2016-04-12T08:32:59.326Z,18.01
2016-04-12T08:33:59.329Z,18.12
2016-04-12T08:34:59.332Z,18.02
2016-04-12T08:35:59.351Z,18.11
2016-04-12T08:36:59.353Z,17.83
2016-04-12T08:37:59.356Z,17.24
2016-04-12T08:38:59.359Z,16.67
2016-04-12T08:39:59.377Z,16.68
2016-04-12T08:40:59.364Z,16.39
2016-04-12T08:41:59.382Z,16.39
2016-04-12T08:42:59.385Z,16.58
2016-04-12T08:43:59.403Z,16.58
2016-04-12T08:44:59.406Z,16.78
2016-04-12T08:45:59.409Z,16.68
2016-04-12T08:46:59.411Z,16.49
2016-04-12T08:47:59.414Z,16.87
2016-04-12T08:48:59.433Z,16.39
2016-04-12T08:49:59.435Z,16.78
2016-04-12T08:50:59.438Z,16.49
2016-04-12T08:51:59.441Z,16.29
2016-04-12T08:52:59.458Z,16.78
2016-04-12T08:53:59.461Z,16.78
2016-04-12T08:54:59.464Z,16.58
2016-04-12T08:55:59.483Z,16.96
2016-04-12T08:56:59.469Z,17.06
2016-04-12T08:57:59.504Z,16.96
2016-04-12T08:58:59.491Z,17.16
2016-04-12T08:59:59.524Z,17.06
2016-04-12T09:00:59.512Z,17.25
2016-04-12T09:01:59.515Z,17.16
2016-04-12T09:02:59.532Z,17.44
2016-04-12T09:03:59.551Z,17.25
2016-04-12T09:04:59.537Z,17.44
2016-04-12T09:05:59.571Z,16.96
2016-04-12T09:06:59.559Z,17.63
2016-04-12T09:07:59.562Z,17.73
2016-04-12T09:08:59.553Z,17.63
2016-04-12T09:09:59.572Z,17.73
2016-04-12T09:10:59.575Z,17.92
2016-04-12T09:11:59.593Z,17.83
2016-04-12T09:12:59.580Z,17.63
2016-04-12T09:13:59.598Z,17.83
2016-04-12T09:14:59.600Z,18.02
2016-04-12T09:15:59.603Z,18.02
2016-04-12T09:16:59.622Z,17.92
2016-04-12T09:17:59.625Z,17.92
2016-04-12T09:18:59.627Z,17.63
2016-04-12T09:19:59.630Z,17.63
2016-04-12T09:20:59.648Z,17.92
2016-04-12T09:21:59.651Z,18.02
2016-04-12T09:22:59.669Z,18.31
2016-04-12T09:23:59.672Z,17.91
2016-04-12T09:24:59.674Z,18.21
2016-04-12T09:25:59.693Z,18.4
2016-04-12T09:26:59.696Z,18.21
2016-04-12T09:27:59.698Z,18.12
2016-04-12T09:28:59.701Z,18.31
2016-04-12T09:29:59.719Z,18.3
2016-04-12T09:31:13.832Z,18.59
2016-04-12T09:31:59.724Z,17.91
2016-04-12T09:32:59.727Z,18.21
2016-04-12T09:33:59.746Z,18.59
2016-04-12T09:34:59.765Z,18.21
2016-04-12T09:35:59.767Z,17.91
2016-04-12T09:36:59.770Z,18.3
2016-04-12T09:37:59.772Z,18.11
2016-04-12T09:38:59.790Z,18.31
2016-04-12T09:39:59.793Z,18.31
2016-04-12T09:40:59.796Z,18.21
2016-04-12T09:41:59.798Z,18.21
2016-04-12T09:42:59.833Z,17.91
2016-04-12T09:43:59.803Z,18.49
2016-04-12T09:44:59.806Z,18.98
2016-04-12T09:45:59.825Z,18.79
2016-04-12T09:46:59.844Z,18.59
2016-04-12T09:47:59.846Z,18.49
2016-04-12T09:48:59.849Z,18.59
2016-04-12T09:49:59.852Z,18.69
2016-04-12T09:50:59.869Z,18.69
2016-04-12T09:51:59.856Z,18.88
2016-04-12T09:52:59.874Z,18.88
2016-04-12T09:53:59.894Z,18.79
2016-04-12T09:54:59.896Z,18.88
2016-04-12T09:55:59.899Z,18.87
2016-04-12T09:56:59.916Z,18.69
2016-04-12T09:57:59.904Z,18.88
2016-04-12T09:58:59.907Z,18.59
2016-04-12T09:59:59.910Z,18.59
2016-04-12T10:00:59.944Z,18.3
2016-04-12T10:01:59.930Z,18.49
2016-04-12T10:02:59.932Z,18.88
2016-04-12T10:03:59.951Z,18.79
2016-04-12T10:05:00.017Z,18.98
2016-04-12T10:05:59.972Z,18.88
2016-04-12T10:06:59.976Z,18.59
2016-04-12T10:08:00.118Z,18.68
2016-04-12T10:08:59.981Z,18.88
2016-04-12T10:09:59.998Z,18.87
2016-04-12T10:11:00.017Z,18.59
2016-04-12T10:12:00.004Z,19.65
2016-04-12T10:13:00.006Z,18.98
2016-04-12T10:14:00.041Z,19.07
2016-04-12T10:15:00.027Z,19.07
2016-04-12T10:16:00.047Z,19.65
2016-04-12T10:17:00.049Z,19.95
2016-04-12T10:18:00.052Z,20.13
2016-04-12T10:19:00.054Z,20.03
2016-04-12T10:20:00.057Z,20.23
2016-04-12T10:21:00.075Z,19.95
2016-04-12T10:22:00.078Z,20.23
2016-04-12T10:23:00.097Z,20.62
2016-04-12T10:24:00.083Z,20.52
2016-04-12T10:25:00.085Z,21.1
2016-04-12T10:26:00.104Z,20.62
2016-04-12T10:27:00.122Z,20.9
2016-04-12T10:28:00.125Z,20.71
2016-04-12T10:29:00.127Z,20.81
2016-04-12T10:30:00.130Z,20.71
2016-04-12T10:31:00.133Z,20.71
2016-04-12T10:32:00.135Z,20.71
2016-04-12T10:33:00.154Z,20.62
2016-04-12T10:34:00.157Z,20.71
2016-04-12T10:35:00.159Z,20.62
2016-04-12T10:36:00.991Z,21.1
2016-04-12T10:37:00.181Z,20.62
2016-04-12T10:38:00.184Z,20.62
2016-04-12T10:39:00.186Z,20.9
2016-04-12T10:40:00.189Z,20.9
2016-04-12T10:41:00.206Z,21
2016-04-12T10:42:00.225Z,20.9
2016-04-12T10:43:00.229Z,21.1
2016-04-12T10:44:00.215Z,20.9
2016-04-12T10:45:00.234Z,20.9
2016-04-12T10:46:00.252Z,20.81
2016-04-12T10:47:00.255Z,20.9
2016-04-12T10:48:00.258Z,20.9
2016-04-12T10:49:00.354Z,20.81
2016-04-12T10:50:00.263Z,20.9
2016-04-12T10:51:00.265Z,21
2016-04-12T10:52:00.284Z,21.1
2016-04-12T10:53:00.286Z,20.71
2016-04-12T10:54:00.289Z,21.1
2016-04-12T10:55:00.308Z,21
2016-04-12T10:56:00.310Z,21.1
2016-04-12T10:57:00.328Z,20.81
2016-04-12T10:58:00.330Z,21.3
2016-04-12T10:59:00.333Z,21.68
2016-04-12T11:00:00.352Z,21.58
2016-04-12T11:02:00.357Z,21.1
2016-04-12T11:03:00.360Z,21.3
2016-04-12T11:04:00.643Z,21.3
2016-04-12T11:05:00.365Z,21.1
2016-04-12T11:06:00.384Z,21.1
2016-04-12T11:07:00.433Z,21.1
2016-04-12T11:08:00.404Z,21.2
2016-04-12T11:09:00.408Z,20.71
2016-04-12T11:10:00.410Z,20.9
2016-04-12T11:11:00.428Z,20.9
2016-04-12T11:12:00.415Z,21.1
2016-04-12T11:13:00.417Z,21
2016-04-12T11:14:00.437Z,20.81
2016-04-12T11:15:00.439Z,20.71
2016-04-12T11:16:00.442Z,20.9
2016-04-12T11:17:00.460Z,20.9
2016-04-12T11:18:00.478Z,20.9
2016-04-12T11:19:00.606Z,20.81
2016-04-12T11:20:00.483Z,20.9
2016-04-12T11:21:00.471Z,20.81
2016-04-12T11:22:00.505Z,20.81
2016-04-12T11:23:00.523Z,20.81
2016-04-12T11:24:00.511Z,21.2
2016-04-12T11:25:00.513Z,21
2016-04-12T11:26:00.531Z,21
2016-04-12T11:27:00.518Z,20.81
2016-04-12T11:28:00.521Z,20.9
2016-04-12T11:29:00.539Z,20.71
2016-04-12T11:30:00.542Z,21.1
2016-04-12T11:31:00.545Z,21.48
2016-04-12T11:32:00.546Z,21.48
2016-04-12T11:33:00.566Z,21.58
2016-04-12T11:34:00.616Z,21.86
2016-04-12T11:35:00.571Z,21.77
2016-04-12T11:36:00.590Z,21.77
2016-04-12T11:37:00.592Z,21.39
2016-04-12T11:38:00.610Z,21.3
2016-04-12T11:39:00.612Z,21.3
2016-04-12T11:40:00.615Z,21.19
2016-04-12T11:41:00.650Z,21.2
2016-04-12T11:42:00.636Z,21
2016-04-12T11:43:00.670Z,21
2016-04-12T11:44:00.674Z,21
2016-04-12T11:45:00.645Z,21.1
2016-04-12T11:46:00.663Z,20.9
2016-04-12T11:47:00.666Z,20.9
2016-04-12T11:48:00.684Z,21
2016-04-12T11:49:00.718Z,20.9
2016-04-12T11:50:00.689Z,20.32
2016-04-12T11:51:00.692Z,20.62
2016-04-12T11:52:00.538Z,20.81
2016-04-12T11:53:00.697Z,20.71
2016-04-12T11:54:00.716Z,20.32
2016-04-12T11:55:00.719Z,20.9
2016-04-12T11:56:00.721Z,20.52
2016-04-12T11:57:00.724Z,21
2016-04-12T11:58:00.742Z,21
2016-04-12T11:59:00.761Z,21.39
2016-04-12T12:00:00.764Z,21
2016-04-12T12:01:00.750Z,20.9
2016-04-12T12:02:00.769Z,20.81
2016-04-12T12:03:00.771Z,21
2016-04-12T12:04:00.774Z,21.48
2016-04-12T12:05:00.793Z,21.1
2016-04-12T12:06:00.810Z,21.2
2016-04-12T12:07:00.813Z,21.57
2016-04-12T12:08:00.816Z,21.48
2016-04-12T12:09:00.818Z,21.57
2016-04-12T12:10:00.821Z,21.86
2016-04-12T12:11:00.855Z,21.67
2016-04-12T12:12:00.842Z,21.77
2016-04-12T12:13:00.846Z,21.67
2016-04-12T12:14:00.848Z,21.96
2016-04-12T12:15:00.850Z,21.86
2016-04-12T12:16:00.853Z,21.77
2016-04-12T12:17:00.872Z,21.77
2016-04-12T12:18:00.875Z,21.57
2016-04-12T12:19:00.737Z,22.06
2016-04-12T12:20:00.895Z,22.16
2016-04-12T12:21:00.898Z,21.57
2016-04-12T12:22:00.901Z,22.16
2016-04-12T12:23:00.919Z,21.86
2016-04-12T12:24:00.906Z,21.86
2016-04-12T12:25:00.925Z,21.86
2016-04-12T12:26:00.927Z,22.06
2016-04-12T12:27:00.930Z,21.77
2016-04-12T12:28:00.948Z,21.86
2016-04-12T12:29:00.950Z,22.06
2016-04-12T12:30:00.953Z,21.77
2016-04-12T12:31:00.956Z,21.77
2016-04-12T12:32:00.958Z,21.96
2016-04-12T12:33:00.977Z,21.86
2016-04-12T12:34:01.043Z,21.86
2016-04-12T12:35:00.982Z,21.96
2016-04-12T12:36:01.001Z,21.96
2016-04-12T12:37:01.004Z,22.06
2016-04-12T12:38:01.007Z,22.05
2016-04-12T12:39:01.024Z,21.77
2016-04-12T12:40:01.012Z,22.14
2016-04-12T12:41:01.029Z,22.16
2016-04-12T12:42:01.032Z,22.24
2016-04-12T12:43:01.051Z,22.05
2016-04-12T12:44:01.038Z,21.95
2016-04-12T12:45:01.057Z,22.16
2016-04-12T12:46:01.059Z,21.95
2016-04-12T12:47:01.061Z,22.06
2016-04-12T12:48:01.080Z,21.96
2016-04-12T12:49:01.114Z,22.16
2016-04-12T12:50:01.100Z,22.25
2016-04-12T12:51:01.089Z,22.14
2016-04-12T12:52:01.106Z,22.14
2016-04-12T12:53:01.108Z,22.16
2016-04-12T12:54:01.127Z,22.05
2016-04-12T12:55:01.114Z,22.34
2016-04-12T12:56:01.133Z,22.05
2016-04-12T12:57:01.135Z,21.95
2016-04-12T12:58:01.169Z,21.95
2016-04-12T12:59:01.141Z,21.96
2016-04-12T13:00:01.174Z,21.95